sensor_id;sensor_type;location;lat;lon;timestamp;temperature;humidity
79020;DHT22;72857;44.740;37.770;2024-03-08T00:00:16;4.14;74.87
79020;DHT22;72857;44.740;37.770;2024-03-08T00:01:19;4.14;74.65
79020;DHT22;72857;44.740;37.770;2024-03-08T00:02:20;4.14;73.89
79020;DHT22;72857;44.740;37.770;2024-03-08T00:03:22;4.16;74.17
79020;DHT22;72857;44.740;37.770;2024-03-08T00:04:24;4.17;74.22
79020;DHT22;72857;44.740;37.770;2024-03-08T00:05:25;4.19;74.30
79020;DHT22;72857;44.740;37.770;2024-03-08T00:06:27;4.19;74.27
79020;DHT22;72857;44.740;37.770;2024-03-08T00:07:28;4.21;74.07
79020;DHT22;72857;44.740;37.770;2024-03-08T00:08:29;4.20;73.72
79020;DHT22;72857;44.740;37.770;2024-03-08T00:09:32;4.21;73.92
79020;DHT22;72857;44.740;37.770;2024-03-08T00:10:33;4.21;74.22
79020;DHT22;72857;44.740;37.770;2024-03-08T00:11:34;4.17;73.51
79020;DHT22;72857;44.740;37.770;2024-03-08T00:12:36;4.20;73.67
79020;DHT22;72857;44.740;37.770;2024-03-08T00:13:37;4.26;73.69
79020;DHT22;72857;44.740;37.770;2024-03-08T00:14:39;4.21;73.64
79020;DHT22;72857;44.740;37.770;2024-03-08T00:15:40;4.23;73.70
79020;DHT22;72857;44.740;37.770;2024-03-08T00:16:42;4.19;74.23
79020;DHT22;72857;44.740;37.770;2024-03-08T00:17:45;4.10;74.36
79020;DHT22;72857;44.740;37.770;2024-03-08T00:18:46;4.05;74.91
79020;DHT22;72857;44.740;37.770;2024-03-08T00:19:51;4.02;74.59
79020;DHT22;72857;44.740;37.770;2024-03-08T00:20:52;4.05;74.90
79020;DHT22;72857;44.740;37.770;2024-03-08T00:21:54;4.03;75.33
79020;DHT22;72857;44.740;37.770;2024-03-08T00:22:56;4.07;75.55
79020;DHT22;72857;44.740;37.770;2024-03-08T00:23:59;4.00;75.33
79020;DHT22;72857;44.740;37.770;2024-03-08T00:25:00;4.02;75.26
79020;DHT22;72857;44.740;37.770;2024-03-08T00:26:03;4.02;75.56
79020;DHT22;72857;44.740;37.770;2024-03-08T00:27:05;4.03;75.24
79020;DHT22;72857;44.740;37.770;2024-03-08T00:28:07;4.06;75.02
79020;DHT22;72857;44.740;37.770;2024-03-08T00:29:08;4.09;74.92
79020;DHT22;72857;44.740;37.770;2024-03-08T00:30:10;4.10;75.03
79020;DHT22;72857;44.740;37.770;2024-03-08T00:31:13;4.10;74.92
79020;DHT22;72857;44.740;37.770;2024-03-08T00:32:15;4.09;74.60
79020;DHT22;72857;44.740;37.770;2024-03-08T00:33:18;4.10;74.77
79020;DHT22;72857;44.740;37.770;2024-03-08T00:34:19;4.13;75.07
79020;DHT22;72857;44.740;37.770;2024-03-08T00:35:20;4.10;74.89
79020;DHT22;72857;44.740;37.770;2024-03-08T00:36:22;4.10;74.78
79020;DHT22;72857;44.740;37.770;2024-03-08T00:37:24;4.06;74.85
79020;DHT22;72857;44.740;37.770;2024-03-08T00:38:28;4.00;74.59
79020;DHT22;72857;44.740;37.770;2024-03-08T00:39:29;4.05;74.91
79020;DHT22;72857;44.740;37.770;2024-03-08T00:40:31;4.05;74.90
79020;DHT22;72857;44.740;37.770;2024-03-08T00:41:33;3.98;75.06
79020;DHT22;72857;44.740;37.770;2024-03-08T00:42:35;3.98;75.46
79020;DHT22;72857;44.740;37.770;2024-03-08T00:43:36;3.99;75.17
79020;DHT22;72857;44.740;37.770;2024-03-08T00:44:37;4.02;75.04
79020;DHT22;72857;44.740;37.770;2024-03-08T00:45:39;3.98;75.14
79020;DHT22;72857;44.740;37.770;2024-03-08T00:46:43;3.96;75.05
79020;DHT22;72857;44.740;37.770;2024-03-08T00:47:44;3.99;75.16
79020;DHT22;72857;44.740;37.770;2024-03-08T00:48:46;3.98;74.99
79020;DHT22;72857;44.740;37.770;2024-03-08T00:49:48;4.02;75.05
79020;DHT22;72857;44.740;37.770;2024-03-08T00:50:49;4.02;74.88
79020;DHT22;72857;44.740;37.770;2024-03-08T00:51:51;4.06;74.75
79020;DHT22;72857;44.740;37.770;2024-03-08T00:52:52;4.06;74.55
79020;DHT22;72857;44.740;37.770;2024-03-08T00:53:54;4.00;74.73
79020;DHT22;72857;44.740;37.770;2024-03-08T00:54:56;4.00;75.25
79020;DHT22;72857;44.740;37.770;2024-03-08T00:55:57;4.02;75.07
79020;DHT22;72857;44.740;37.770;2024-03-08T00:56:59;3.99;75.03
79020;DHT22;72857;44.740;37.770;2024-03-08T00:58:04;4.00;74.93
79020;DHT22;72857;44.740;37.770;2024-03-08T00:59:07;3.99;74.96
79020;DHT22;72857;44.740;37.770;2024-03-08T01:00:08;3.96;75.17
79020;DHT22;72857;44.740;37.770;2024-03-08T01:01:13;3.98;75.24
79020;DHT22;72857;44.740;37.770;2024-03-08T01:02:16;3.93;75.40
79020;DHT22;72857;44.740;37.770;2024-03-08T01:03:20;3.99;75.60
79020;DHT22;72857;44.740;37.770;2024-03-08T01:04:21;3.99;75.25
79020;DHT22;72857;44.740;37.770;2024-03-08T01:05:24;3.96;75.10
79020;DHT22;72857;44.740;37.770;2024-03-08T01:06:25;3.98;75.50
79020;DHT22;72857;44.740;37.770;2024-03-08T01:07:28;4.06;75.40
79020;DHT22;72857;44.740;37.770;2024-03-08T01:08:29;4.03;74.98
79020;DHT22;72857;44.740;37.770;2024-03-08T01:09:30;4.07;75.19
79020;DHT22;72857;44.740;37.770;2024-03-08T01:10:32;4.09;75.00
79020;DHT22;72857;44.740;37.770;2024-03-08T01:11:34;4.05;74.78
79020;DHT22;72857;44.740;37.770;2024-03-08T01:12:35;3.99;74.86
79020;DHT22;72857;44.740;37.770;2024-03-08T01:13:36;3.98;75.03
79020;DHT22;72857;44.740;37.770;2024-03-08T01:14:38;3.92;75.32
79020;DHT22;72857;44.740;37.770;2024-03-08T01:15:39;3.98;75.38
79020;DHT22;72857;44.740;37.770;2024-03-08T01:16:42;3.99;75.58
79020;DHT22;72857;44.740;37.770;2024-03-08T01:17:43;3.93;75.18
79020;DHT22;72857;44.740;37.770;2024-03-08T01:18:45;3.90;75.58
79020;DHT22;72857;44.740;37.770;2024-03-08T01:19:47;3.95;75.46
79020;DHT22;72857;44.740;37.770;2024-03-08T01:20:48;3.99;75.48
79020;DHT22;72857;44.740;37.770;2024-03-08T01:21:50;3.99;75.39
79020;DHT22;72857;44.740;37.770;2024-03-08T01:22:53;4.00;75.01
79020;DHT22;72857;44.740;37.770;2024-03-08T01:23:54;3.92;75.24
79020;DHT22;72857;44.740;37.770;2024-03-08T01:24:56;3.88;75.29
79020;DHT22;72857;44.740;37.770;2024-03-08T01:25:58;3.82;75.63
79020;DHT22;72857;44.740;37.770;2024-03-08T01:26:59;3.83;75.85
79020;DHT22;72857;44.740;37.770;2024-03-08T01:28:00;3.90;76.02
79020;DHT22;72857;44.740;37.770;2024-03-08T01:29:03;3.89;75.30
79020;DHT22;72857;44.740;37.770;2024-03-08T01:30:05;3.90;75.32
79020;DHT22;72857;44.740;37.770;2024-03-08T01:31:07;3.85;75.45
79020;DHT22;72857;44.740;37.770;2024-03-08T01:32:08;3.83;75.30
79020;DHT22;72857;44.740;37.770;2024-03-08T01:33:10;3.79;75.53
79020;DHT22;72857;44.740;37.770;2024-03-08T01:34:11;3.82;75.80
79020;DHT22;72857;44.740;37.770;2024-03-08T01:35:12;3.85;75.67
79020;DHT22;72857;44.740;37.770;2024-03-08T01:36:14;3.83;75.55
79020;DHT22;72857;44.740;37.770;2024-03-08T01:37:16;3.83;75.64
79020;DHT22;72857;44.740;37.770;2024-03-08T01:38:18;3.78;75.81
79020;DHT22;72857;44.740;37.770;2024-03-08T01:39:19;3.72;75.98
79020;DHT22;72857;44.740;37.770;2024-03-08T01:40:23;3.74;76.36
79020;DHT22;72857;44.740;37.770;2024-03-08T01:41:24;3.81;76.36
79020;DHT22;72857;44.740;37.770;2024-03-08T01:42:25;3.79;76.19
79020;DHT22;72857;44.740;37.770;2024-03-08T01:43:28;3.82;76.22
79020;DHT22;72857;44.740;37.770;2024-03-08T01:44:29;3.78;75.65
79020;DHT22;72857;44.740;37.770;2024-03-08T01:45:31;3.77;76.17
79020;DHT22;72857;44.740;37.770;2024-03-08T01:46:35;3.79;76.44
79020;DHT22;72857;44.740;37.770;2024-03-08T01:47:37;3.79;76.32
79020;DHT22;72857;44.740;37.770;2024-03-08T01:48:39;3.83;76.36
79020;DHT22;72857;44.740;37.770;2024-03-08T01:49:42;3.83;76.03
79020;DHT22;72857;44.740;37.770;2024-03-08T01:50:44;3.83;76.07
79020;DHT22;72857;44.740;37.770;2024-03-08T01:51:48;3.81;76.51
79020;DHT22;72857;44.740;37.770;2024-03-08T01:52:50;3.79;76.51
79020;DHT22;72857;44.740;37.770;2024-03-08T01:53:51;3.82;76.30
79020;DHT22;72857;44.740;37.770;2024-03-08T01:54:53;3.82;76.19
79020;DHT22;72857;44.740;37.770;2024-03-08T01:55:57;3.79;76.06
79020;DHT22;72857;44.740;37.770;2024-03-08T01:56:58;3.79;76.33
79020;DHT22;72857;44.740;37.770;2024-03-08T01:58:00;3.79;76.29
79020;DHT22;72857;44.740;37.770;2024-03-08T01:59:01;3.82;76.36
79020;DHT22;72857;44.740;37.770;2024-03-08T02:00:04;3.86;76.26
79020;DHT22;72857;44.740;37.770;2024-03-08T02:01:07;3.89;76.18
79020;DHT22;72857;44.740;37.770;2024-03-08T02:02:11;3.83;75.93
79020;DHT22;72857;44.740;37.770;2024-03-08T02:03:14;3.85;76.24
79020;DHT22;72857;44.740;37.770;2024-03-08T02:04:15;3.88;76.40
79020;DHT22;72857;44.740;37.770;2024-03-08T02:05:17;3.89;75.98
79020;DHT22;72857;44.740;37.770;2024-03-08T02:06:19;3.90;76.10
79020;DHT22;72857;44.740;37.770;2024-03-08T02:07:20;3.96;75.64
79020;DHT22;72857;44.740;37.770;2024-03-08T02:08:22;3.93;76.03
79020;DHT22;72857;44.740;37.770;2024-03-08T02:09:25;3.93;75.93
79020;DHT22;72857;44.740;37.770;2024-03-08T02:10:26;3.90;75.83
79020;DHT22;72857;44.740;37.770;2024-03-08T02:11:28;3.82;76.06
79020;DHT22;72857;44.740;37.770;2024-03-08T02:12:29;3.86;76.15
79020;DHT22;72857;44.740;37.770;2024-03-08T02:13:30;3.85;76.27
79020;DHT22;72857;44.740;37.770;2024-03-08T02:14:32;3.85;76.35
79020;DHT22;72857;44.740;37.770;2024-03-08T02:15:55;3.83;76.30
79020;DHT22;72857;44.740;37.770;2024-03-08T02:17:02;3.78;76.24
79020;DHT22;72857;44.740;37.770;2024-03-08T02:18:03;3.78;76.34
79020;DHT22;72857;44.740;37.770;2024-03-08T02:19:05;3.82;76.64
79020;DHT22;72857;44.740;37.770;2024-03-08T02:20:10;3.85;76.48
79020;DHT22;72857;44.740;37.770;2024-03-08T02:21:16;3.83;76.63
79020;DHT22;72857;44.740;37.770;2024-03-08T02:22:22;3.89;76.62
79020;DHT22;72857;44.740;37.770;2024-03-08T02:23:23;3.86;76.47
79020;DHT22;72857;44.740;37.770;2024-03-08T02:24:28;3.89;76.72
79020;DHT22;72857;44.740;37.770;2024-03-08T02:25:29;3.93;76.62
79020;DHT22;72857;44.740;37.770;2024-03-08T02:26:32;3.99;76.30
79020;DHT22;72857;44.740;37.770;2024-03-08T02:27:33;4.02;76.01
79020;DHT22;72857;44.740;37.770;2024-03-08T02:28:34;4.02;76.20
79020;DHT22;72857;44.740;37.770;2024-03-08T02:29:36;4.05;76.26
79020;DHT22;72857;44.740;37.770;2024-03-08T02:30:38;4.06;76.24
79020;DHT22;72857;44.740;37.770;2024-03-08T02:31:39;4.07;76.33
79020;DHT22;72857;44.740;37.770;2024-03-08T02:32:41;4.05;75.90
79020;DHT22;72857;44.740;37.770;2024-03-08T02:33:42;4.05;75.92
79020;DHT22;72857;44.740;37.770;2024-03-08T02:34:43;4.06;76.23
79020;DHT22;72857;44.740;37.770;2024-03-08T02:35:46;4.05;75.93
79020;DHT22;72857;44.740;37.770;2024-03-08T02:36:47;4.03;76.19
79020;DHT22;72857;44.740;37.770;2024-03-08T02:37:49;3.99;76.20
79020;DHT22;72857;44.740;37.770;2024-03-08T02:38:50;3.98;76.46
79020;DHT22;72857;44.740;37.770;2024-03-08T02:39:51;3.95;76.63
79020;DHT22;72857;44.740;37.770;2024-03-08T02:40:53;3.93;76.72
79020;DHT22;72857;44.740;37.770;2024-03-08T02:41:55;3.96;76.73
79020;DHT22;72857;44.740;37.770;2024-03-08T02:42:56;4.02;76.65
79020;DHT22;72857;44.740;37.770;2024-03-08T02:43:57;4.03;76.29
79020;DHT22;72857;44.740;37.770;2024-03-08T02:44:59;4.05;76.36
79020;DHT22;72857;44.740;37.770;2024-03-08T02:46:00;4.06;76.42
79020;DHT22;72857;44.740;37.770;2024-03-08T02:47:01;4.09;76.41
79020;DHT22;72857;44.740;37.770;2024-03-08T02:48:03;4.07;76.28
79020;DHT22;72857;44.740;37.770;2024-03-08T02:49:05;4.05;76.28
79020;DHT22;72857;44.740;37.770;2024-03-08T02:50:07;4.03;76.61
79020;DHT22;72857;44.740;37.770;2024-03-08T02:51:12;4.07;76.64
79020;DHT22;72857;44.740;37.770;2024-03-08T02:52:17;4.10;76.71
79020;DHT22;72857;44.740;37.770;2024-03-08T02:53:18;4.05;76.54
79020;DHT22;72857;44.740;37.770;2024-03-08T02:54:23;4.02;76.57
79020;DHT22;72857;44.740;37.770;2024-03-08T02:55:25;4.03;76.73
79020;DHT22;72857;44.740;37.770;2024-03-08T02:56:26;4.07;76.65
79020;DHT22;72857;44.740;37.770;2024-03-08T02:57:28;4.06;76.41
79020;DHT22;72857;44.740;37.770;2024-03-08T02:58:29;4.00;76.52
79020;DHT22;72857;44.740;37.770;2024-03-08T02:59:30;3.99;76.82
79020;DHT22;72857;44.740;37.770;2024-03-08T03:00:32;3.99;76.68
79020;DHT22;72857;44.740;37.770;2024-03-08T03:01:33;3.96;76.96
79020;DHT22;72857;44.740;37.770;2024-03-08T03:02:36;3.96;76.86
79020;DHT22;72857;44.740;37.770;2024-03-08T03:03:38;3.93;77.05
79020;DHT22;72857;44.740;37.770;2024-03-08T03:04:40;3.90;77.07
79020;DHT22;72857;44.740;37.770;2024-03-08T03:05:41;3.93;77.18
79020;DHT22;72857;44.740;37.770;2024-03-08T03:06:43;3.90;77.19
79020;DHT22;72857;44.740;37.770;2024-03-08T03:07:44;3.90;77.31
79020;DHT22;72857;44.740;37.770;2024-03-08T03:08:46;3.92;77.43
79020;DHT22;72857;44.740;37.770;2024-03-08T03:09:47;3.93;77.32
79020;DHT22;72857;44.740;37.770;2024-03-08T03:10:48;3.95;77.20
79020;DHT22;72857;44.740;37.770;2024-03-08T03:11:50;3.89;77.18
79020;DHT22;72857;44.740;37.770;2024-03-08T03:12:51;3.92;77.14
79020;DHT22;72857;44.740;37.770;2024-03-08T03:13:53;3.93;77.44
79020;DHT22;72857;44.740;37.770;2024-03-08T03:14:55;3.95;77.21
79020;DHT22;72857;44.740;37.770;2024-03-08T03:15:57;3.99;77.55
79020;DHT22;72857;44.740;37.770;2024-03-08T03:16:59;4.03;77.44
79020;DHT22;72857;44.740;37.770;2024-03-08T03:18:00;4.06;77.20
79020;DHT22;72857;44.740;37.770;2024-03-08T03:19:01;4.10;77.16
79020;DHT22;72857;44.740;37.770;2024-03-08T03:20:07;4.14;76.91
79020;DHT22;72857;44.740;37.770;2024-03-08T03:21:14;4.10;76.58
79020;DHT22;72857;44.740;37.770;2024-03-08T03:22:15;4.12;76.50
79020;DHT22;72857;44.740;37.770;2024-03-08T03:23:17;4.07;76.54
79020;DHT22;72857;44.740;37.770;2024-03-08T03:24:21;4.07;76.63
79020;DHT22;72857;44.740;37.770;2024-03-08T03:25:22;4.06;76.68
79020;DHT22;72857;44.740;37.770;2024-03-08T03:26:30;4.06;76.71
79020;DHT22;72857;44.740;37.770;2024-03-08T03:27:32;4.06;76.76
79020;DHT22;72857;44.740;37.770;2024-03-08T03:28:34;4.06;76.92
79020;DHT22;72857;44.740;37.770;2024-03-08T03:29:38;4.03;76.93
79020;DHT22;72857;44.740;37.770;2024-03-08T03:30:41;3.99;76.91
79020;DHT22;72857;44.740;37.770;2024-03-08T03:31:43;3.99;77.24
79020;DHT22;72857;44.740;37.770;2024-03-08T03:32:48;4.03;77.38
79020;DHT22;72857;44.740;37.770;2024-03-08T03:33:51;4.06;77.06
79020;DHT22;72857;44.740;37.770;2024-03-08T03:34:53;4.07;77.13
79020;DHT22;72857;44.740;37.770;2024-03-08T03:35:55;4.07;76.94
79020;DHT22;72857;44.740;37.770;2024-03-08T03:36:56;4.07;76.98
79020;DHT22;72857;44.740;37.770;2024-03-08T03:37:58;4.06;76.97
79020;DHT22;72857;44.740;37.770;2024-03-08T03:39:09;4.07;77.11
79020;DHT22;72857;44.740;37.770;2024-03-08T03:40:21;4.10;76.78
79020;DHT22;72857;44.740;37.770;2024-03-08T03:41:24;4.07;76.77
79020;DHT22;72857;44.740;37.770;2024-03-08T03:42:26;4.10;76.79
79020;DHT22;72857;44.740;37.770;2024-03-08T03:43:27;4.12;76.84
79020;DHT22;72857;44.740;37.770;2024-03-08T03:44:29;4.10;76.81
79020;DHT22;72857;44.740;37.770;2024-03-08T03:45:31;4.09;76.73
79020;DHT22;72857;44.740;37.770;2024-03-08T03:46:35;4.09;77.04
79020;DHT22;72857;44.740;37.770;2024-03-08T03:47:37;4.12;76.93
79020;DHT22;72857;44.740;37.770;2024-03-08T03:48:39;4.14;77.00
79020;DHT22;72857;44.740;37.770;2024-03-08T03:49:43;4.19;76.75
79020;DHT22;72857;44.740;37.770;2024-03-08T03:50:44;4.23;76.66
79020;DHT22;72857;44.740;37.770;2024-03-08T03:51:46;4.23;76.25
79020;DHT22;72857;44.740;37.770;2024-03-08T03:52:48;4.21;76.32
79020;DHT22;72857;44.740;37.770;2024-03-08T03:53:49;4.20;76.64
79020;DHT22;72857;44.740;37.770;2024-03-08T03:54:50;4.26;76.72
79020;DHT22;72857;44.740;37.770;2024-03-08T03:55:52;4.26;76.70
79020;DHT22;72857;44.740;37.770;2024-03-08T03:56:53;4.33;76.46
79020;DHT22;72857;44.740;37.770;2024-03-08T03:57:55;4.32;76.26
79020;DHT22;72857;44.740;37.770;2024-03-08T03:58:56;4.33;76.00
79020;DHT22;72857;44.740;37.770;2024-03-08T03:59:58;4.30;75.89
79020;DHT22;72857;44.740;37.770;2024-03-08T04:00:59;4.32;76.03
79020;DHT22;72857;44.740;37.770;2024-03-08T04:02:01;4.34;75.98
79020;DHT22;72857;44.740;37.770;2024-03-08T04:03:02;4.33;76.04
79020;DHT22;72857;44.740;37.770;2024-03-08T04:04:03;4.34;76.08
79020;DHT22;72857;44.740;37.770;2024-03-08T04:05:07;4.36;75.86
79020;DHT22;72857;44.740;37.770;2024-03-08T04:06:08;4.36;75.73
79020;DHT22;72857;44.740;37.770;2024-03-08T04:07:10;4.37;75.69
79020;DHT22;72857;44.740;37.770;2024-03-08T04:08:12;4.40;75.62
79020;DHT22;72857;44.740;37.770;2024-03-08T04:09:13;4.40;75.28
79020;DHT22;72857;44.740;37.770;2024-03-08T04:10:14;4.34;75.11
79020;DHT22;72857;44.740;37.770;2024-03-08T04:11:16;4.32;75.37
79020;DHT22;72857;44.740;37.770;2024-03-08T04:12:17;4.36;75.70
79020;DHT22;72857;44.740;37.770;2024-03-08T04:13:19;4.40;75.69
79020;DHT22;72857;44.740;37.770;2024-03-08T04:14:23;4.36;75.62
79020;DHT22;72857;44.740;37.770;2024-03-08T04:15:24;4.32;75.57
79020;DHT22;72857;44.740;37.770;2024-03-08T04:16:26;4.32;75.70
79020;DHT22;72857;44.740;37.770;2024-03-08T04:17:27;4.29;75.61
79020;DHT22;72857;44.740;37.770;2024-03-08T04:18:28;4.28;75.90
79020;DHT22;72857;44.740;37.770;2024-03-08T04:19:30;4.36;77.18
79020;DHT22;72857;44.740;37.770;2024-03-08T04:20:33;4.41;76.35
79020;DHT22;72857;44.740;37.770;2024-03-08T04:21:34;4.39;75.77
79020;DHT22;72857;44.740;37.770;2024-03-08T04:22:36;4.33;75.64
79020;DHT22;72857;44.740;37.770;2024-03-08T04:23:38;4.26;75.41
79020;DHT22;72857;44.740;37.770;2024-03-08T04:24:39;4.21;75.68
79020;DHT22;72857;44.740;37.770;2024-03-08T04:25:41;4.17;75.77
79020;DHT22;72857;44.740;37.770;2024-03-08T04:26:43;4.19;76.03
79020;DHT22;72857;44.740;37.770;2024-03-08T04:27:44;4.16;76.13
79020;DHT22;72857;44.740;37.770;2024-03-08T04:28:46;4.20;76.34
79020;DHT22;72857;44.740;37.770;2024-03-08T04:29:47;4.24;76.25
79020;DHT22;72857;44.740;37.770;2024-03-08T04:30:48;4.29;76.03
79020;DHT22;72857;44.740;37.770;2024-03-08T04:31:52;4.36;75.84
79020;DHT22;72857;44.740;37.770;2024-03-08T04:32:55;4.43;75.84
79020;DHT22;72857;44.740;37.770;2024-03-08T04:33:57;4.47;75.67
79020;DHT22;72857;44.740;37.770;2024-03-08T04:34:58;4.50;75.15
79020;DHT22;72857;44.740;37.770;2024-03-08T04:36:02;4.43;74.26
79020;DHT22;72857;44.740;37.770;2024-03-08T04:37:06;4.39;74.51
79020;DHT22;72857;44.740;37.770;2024-03-08T04:38:07;4.37;74.56
79020;DHT22;72857;44.740;37.770;2024-03-08T04:39:09;4.39;74.66
79020;DHT22;72857;44.740;37.770;2024-03-08T04:40:14;4.40;74.87
79020;DHT22;72857;44.740;37.770;2024-03-08T04:41:15;4.37;74.79
79020;DHT22;72857;44.740;37.770;2024-03-08T04:42:16;4.37;74.69
79020;DHT22;72857;44.740;37.770;2024-03-08T04:43:19;4.32;74.54
79020;DHT22;72857;44.740;37.770;2024-03-08T04:44:23;4.28;74.82
79020;DHT22;72857;44.740;37.770;2024-03-08T04:45:25;4.30;74.94
79020;DHT22;72857;44.740;37.770;2024-03-08T04:46:27;4.37;74.57
79020;DHT22;72857;44.740;37.770;2024-03-08T04:47:29;4.33;74.56
79020;DHT22;72857;44.740;37.770;2024-03-08T04:48:31;4.32;74.32
79020;DHT22;72857;44.740;37.770;2024-03-08T04:49:33;4.21;74.81
79020;DHT22;72857;44.740;37.770;2024-03-08T04:50:37;4.21;75.21
79020;DHT22;72857;44.740;37.770;2024-03-08T04:51:39;4.21;75.37
79020;DHT22;72857;44.740;37.770;2024-03-08T04:52:41;4.19;75.53
79020;DHT22;72857;44.740;37.770;2024-03-08T04:53:42;4.21;75.47
79020;DHT22;72857;44.740;37.770;2024-03-08T04:54:44;4.21;75.51
79020;DHT22;72857;44.740;37.770;2024-03-08T04:55:48;4.21;75.40
79020;DHT22;72857;44.740;37.770;2024-03-08T04:56:49;4.20;75.31
79020;DHT22;72857;44.740;37.770;2024-03-08T04:57:50;4.21;75.27
79020;DHT22;72857;44.740;37.770;2024-03-08T04:58:52;4.21;75.11
79020;DHT22;72857;44.740;37.770;2024-03-08T04:59:53;4.20;75.07
79020;DHT22;72857;44.740;37.770;2024-03-08T05:00:54;4.17;75.50
79020;DHT22;72857;44.740;37.770;2024-03-08T05:01:56;4.16;75.45
79020;DHT22;72857;44.740;37.770;2024-03-08T05:03:01;4.10;75.73
79020;DHT22;72857;44.740;37.770;2024-03-08T05:04:02;4.00;75.54
79020;DHT22;72857;44.740;37.770;2024-03-08T05:05:05;3.99;75.83
79020;DHT22;72857;44.740;37.770;2024-03-08T05:06:10;4.02;76.31
79020;DHT22;72857;44.740;37.770;2024-03-08T05:07:11;4.06;76.13
79020;DHT22;72857;44.740;37.770;2024-03-08T05:08:12;4.06;76.15
79020;DHT22;72857;44.740;37.770;2024-03-08T05:09:14;4.06;75.88
79020;DHT22;72857;44.740;37.770;2024-03-08T05:10:19;4.05;75.84
79020;DHT22;72857;44.740;37.770;2024-03-08T05:11:21;4.07;76.04
79020;DHT22;72857;44.740;37.770;2024-03-08T05:12:22;4.10;75.79
79020;DHT22;72857;44.740;37.770;2024-03-08T05:13:24;4.07;75.48
79020;DHT22;72857;44.740;37.770;2024-03-08T05:14:25;4.03;75.56
79020;DHT22;72857;44.740;37.770;2024-03-08T05:15:26;3.96;75.95
79020;DHT22;72857;44.740;37.770;2024-03-08T05:16:28;4.03;76.45
79020;DHT22;72857;44.740;37.770;2024-03-08T05:17:29;4.06;76.23
79020;DHT22;72857;44.740;37.770;2024-03-08T05:18:31;4.07;76.10
79020;DHT22;72857;44.740;37.770;2024-03-08T05:19:36;4.07;76.16
79020;DHT22;72857;44.740;37.770;2024-03-08T05:20:37;4.05;76.12
79020;DHT22;72857;44.740;37.770;2024-03-08T05:21:38;4.07;76.23
79020;DHT22;72857;44.740;37.770;2024-03-08T05:22:40;4.06;76.20
79020;DHT22;72857;44.740;37.770;2024-03-08T05:23:41;3.99;76.20
79020;DHT22;72857;44.740;37.770;2024-03-08T05:24:43;4.03;76.45
79020;DHT22;72857;44.740;37.770;2024-03-08T05:25:44;4.02;76.41
79020;DHT22;72857;44.740;37.770;2024-03-08T05:26:46;4.05;76.54
79020;DHT22;72857;44.740;37.770;2024-03-08T05:27:48;4.09;76.24
79020;DHT22;72857;44.740;37.770;2024-03-08T05:28:49;4.03;76.11
79020;DHT22;72857;44.740;37.770;2024-03-08T05:29:51;4.05;76.27
79020;DHT22;72857;44.740;37.770;2024-03-08T05:30:52;4.03;75.91
79020;DHT22;72857;44.740;37.770;2024-03-08T05:31:54;4.00;76.21
79020;DHT22;72857;44.740;37.770;2024-03-08T05:32:55;3.99;76.28
79020;DHT22;72857;44.740;37.770;2024-03-08T05:33:57;4.00;76.19
79020;DHT22;72857;44.740;37.770;2024-03-08T05:34:59;4.03;76.55
79020;DHT22;72857;44.740;37.770;2024-03-08T05:36:00;4.05;76.68
79020;DHT22;72857;44.740;37.770;2024-03-08T05:37:03;4.07;76.16
79020;DHT22;72857;44.740;37.770;2024-03-08T05:38:04;4.09;76.03
79020;DHT22;72857;44.740;37.770;2024-03-08T05:39:06;4.05;75.94
79020;DHT22;72857;44.740;37.770;2024-03-08T05:40:08;4.05;76.10
79020;DHT22;72857;44.740;37.770;2024-03-08T05:41:13;4.05;76.53
79020;DHT22;72857;44.740;37.770;2024-03-08T05:42:14;4.02;76.41
79020;DHT22;72857;44.740;37.770;2024-03-08T05:43:16;4.02;76.64
79020;DHT22;72857;44.740;37.770;2024-03-08T05:44:20;4.02;76.60
79020;DHT22;72857;44.740;37.770;2024-03-08T05:45:21;4.02;76.38
79020;DHT22;72857;44.740;37.770;2024-03-08T05:46:23;4.07;76.17
79020;DHT22;72857;44.740;37.770;2024-03-08T05:47:24;4.05;76.11
79020;DHT22;72857;44.740;37.770;2024-03-08T05:48:25;4.12;76.57
79020;DHT22;72857;44.740;37.770;2024-03-08T05:49:27;4.10;76.35
79020;DHT22;72857;44.740;37.770;2024-03-08T05:50:29;4.07;76.47
79020;DHT22;72857;44.740;37.770;2024-03-08T05:51:36;4.03;76.10
79020;DHT22;72857;44.740;37.770;2024-03-08T05:52:38;4.06;76.13
79020;DHT22;72857;44.740;37.770;2024-03-08T05:53:39;4.12;76.28
79020;DHT22;72857;44.740;37.770;2024-03-08T05:54:41;4.06;75.62
79020;DHT22;72857;44.740;37.770;2024-03-08T05:55:42;4.02;75.61
79020;DHT22;72857;44.740;37.770;2024-03-08T05:56:44;4.02;76.29
79020;DHT22;72857;44.740;37.770;2024-03-08T05:57:45;3.99;76.49
79020;DHT22;72857;44.740;37.770;2024-03-08T05:58:46;4.00;76.48
79020;DHT22;72857;44.740;37.770;2024-03-08T05:59:49;3.95;76.13
79020;DHT22;72857;44.740;37.770;2024-03-08T06:00:51;3.93;76.31
79020;DHT22;72857;44.740;37.770;2024-03-08T06:01:52;3.88;76.20
79020;DHT22;72857;44.740;37.770;2024-03-08T06:02:53;3.83;76.46
79020;DHT22;72857;44.740;37.770;2024-03-08T06:03:56;3.86;76.76
79020;DHT22;72857;44.740;37.770;2024-03-08T06:04:57;3.86;76.47
79020;DHT22;72857;44.740;37.770;2024-03-08T06:05:59;3.85;76.57
79020;DHT22;72857;44.740;37.770;2024-03-08T06:07:00;3.90;76.53
79020;DHT22;72857;44.740;37.770;2024-03-08T06:08:04;3.95;76.34
79020;DHT22;72857;44.740;37.770;2024-03-08T06:09:08;3.96;75.91
79020;DHT22;72857;44.740;37.770;2024-03-08T06:10:12;3.95;75.50
79020;DHT22;72857;44.740;37.770;2024-03-08T06:11:14;3.99;75.48
79020;DHT22;72857;44.740;37.770;2024-03-08T06:12:16;4.05;75.80
79020;DHT22;72857;44.740;37.770;2024-03-08T06:13:19;4.05;75.46
79020;DHT22;72857;44.740;37.770;2024-03-08T06:14:21;4.06;75.37
79020;DHT22;72857;44.740;37.770;2024-03-08T06:15:22;4.16;75.82
79020;DHT22;72857;44.740;37.770;2024-03-08T06:16:26;4.21;75.73
79020;DHT22;72857;44.740;37.770;2024-03-08T06:17:30;4.30;75.24
79020;DHT22;72857;44.740;37.770;2024-03-08T06:18:31;4.28;74.74
79020;DHT22;72857;44.740;37.770;2024-03-08T06:19:33;4.19;74.70
79020;DHT22;72857;44.740;37.770;2024-03-08T06:20:35;4.17;74.97
79020;DHT22;72857;44.740;37.770;2024-03-08T06:21:36;4.29;75.31
79020;DHT22;72857;44.740;37.770;2024-03-08T06:22:38;4.34;75.26
79020;DHT22;72857;44.740;37.770;2024-03-08T06:23:42;4.44;74.96
79020;DHT22;72857;44.740;37.770;2024-03-08T06:24:43;4.57;74.91
79020;DHT22;72857;44.740;37.770;2024-03-08T06:25:45;4.67;74.42
79020;DHT22;72857;44.740;37.770;2024-03-08T06:26:47;4.71;74.04
79020;DHT22;72857;44.740;37.770;2024-03-08T06:27:48;4.81;74.24
79020;DHT22;72857;44.740;37.770;2024-03-08T06:28:50;4.80;73.25
79020;DHT22;72857;44.740;37.770;2024-03-08T06:29:51;4.75;72.89
79020;DHT22;72857;44.740;37.770;2024-03-08T06:30:53;4.87;73.50
79020;DHT22;72857;44.740;37.770;2024-03-08T06:31:55;4.91;72.85